Time;durP1;ratioP1;P1;durP2;ratioP2;P2;SDS_P1;SDS_P2;PMS_P1;PMS_P2;Temp;Humidity;BMP_temperature;BMP_pressure;BME280_temperature;BME280_humidity;BME280_pressure;Samples;Min_cycle;Max_cycle;Signal;HPM_P1;HPM_P2
2023/05/13 00:00:13;;;;;;;9.38;7.13;;;11.30;99.90;;;;;;5097049;28;20105;-26
2023/05/13 00:02:39;;;;;;;11.88;7.13;;;11.30;99.90;;;;;;5096089;28;20059;-26
2023/05/13 00:05:05;;;;;;;14.30;7.22;;;11.20;99.90;;;;;;5095692;28;20118;-25
2023/05/13 00:07:31;;;;;;;14.23;8.48;;;11.20;99.90;;;;;;5097791;28;20381;-26
2023/05/13 00:09:57;;;;;;;12.82;8.25;;;11.10;99.90;;;;;;5097124;28;20094;-26
2023/05/13 00:12:23;;;;;;;11.15;7.88;;;11.10;1.00;;;;;;5096838;28;20059;-26
2023/05/13 00:14:48;;;;;;;11.55;7.95;;;11.00;99.90;;;;;;5096836;28;20040;-26
2023/05/13 00:17:14;;;;;;;12.93;8.15;;;11.00;99.90;;;;;;5096705;28;20144;-26
2023/05/13 00:19:40;;;;;;;12.18;8.32;;;10.90;1.00;;;;;;5097222;28;20042;-25
2023/05/13 00:22:05;;;;;;;9.15;7.78;;;10.90;1.00;;;;;;5096628;28;20055;-25
2023/05/13 00:24:31;;;;;;;14.07;9.05;;;10.90;1.00;;;;;;5097080;28;20084;-25
2023/05/13 00:26:57;;;;;;;13.73;8.82;;;10.90;1.00;;;;;;5096547;28;20062;-26
2023/05/13 00:29:23;;;;;;;18.38;9.85;;;10.90;1.00;;;;;;5097016;28;20052;-25
2023/05/13 00:31:48;;;;;;;12.25;9.60;;;10.90;1.00;;;;;;5096446;28;20047;-26
2023/05/13 00:34:15;;;;;;;13.27;9.57;;;10.90;1.00;;;;;;5096416;28;20123;-26
2023/05/13 00:36:41;;;;;;;14.73;9.43;;;10.90;1.00;;;;;;5096423;28;20101;-25
2023/05/13 00:39:07;;;;;;;14.40;9.90;;;10.90;31.20;;;;;;5095082;28;20043;-25
2023/05/13 00:41:32;;;;;;;12.43;9.52;;;10.90;65.10;;;;;;5094771;28;20039;-25
2023/05/13 00:43:58;;;;;;;18.63;9.85;;;10.90;54.90;;;;;;5096217;28;20051;-24
2023/05/13 00:46:24;;;;;;;15.00;10.10;;;10.90;70.40;;;;;;5096097;28;20412;-24
2023/05/13 00:48:50;;;;;;;14.13;10.65;;;10.90;99.90;;;;;;5096080;28;20044;-26
2023/05/13 00:51:17;;;;;;;14.23;9.52;;;10.90;97.60;;;;;;5095969;28;20101;-24
2023/05/13 00:53:43;;;;;;;16.33;10.10;;;10.90;95.10;;;;;;5095984;28;20090;-26
2023/05/13 00:56:09;;;;;;;13.80;11.52;;;10.90;99.90;;;;;;5096487;28;20097;-25
2023/05/13 00:58:35;;;;;;;13.63;11.05;;;10.80;99.90;;;;;;5095985;28;20052;-26
2023/05/13 01:01:30;;;;;;;17.00;10.48;;;10.70;96.70;;;;;;5095876;28;20044;-25
2023/05/13 01:04:12;;;;;;;16.65;11.07;;;10.70;99.90;;;;;;5059099;28;20060;-26
2023/05/13 01:07:06;;;;;;;21.60;12.10;;;10.80;99.90;;;;;;5094575;28;20047;-26
2023/05/13 01:09:53;;;;;;;17.40;11.70;;;10.80;99.90;;;;;;5095649;28;20458;-26
2023/05/13 01:12:29;;;;;;;19.40;12.27;;;10.80;99.90;;;;;;5095993;28;20063;-26
2023/05/13 01:15:08;;;;;;;17.45;12.52;;;10.80;99.90;;;;;;5096201;28;20051;-26
2023/05/13 01:17:58;;;;;;;14.02;11.70;;;10.60;99.90;;;;;;5096146;28;20083;-25
2023/05/13 01:20:26;;;;;;;13.77;12.02;;;10.60;99.90;;;;;;5095565;28;20088;-26
2023/05/13 01:22:51;;;;;;;16.90;11.98;;;10.60;99.90;;;;;;5095450;28;20129;-26
2023/05/13 01:25:17;;;;;;;16.80;11.88;;;10.60;99.90;;;;;;5095359;28;20508;-25
2023/05/13 01:27:43;;;;;;;17.95;11.75;;;10.60;99.90;;;;;;5095330;28;20047;-27
2023/05/13 01:30:09;;;;;;;16.30;12.20;;;10.60;99.90;;;;;;5095608;28;20048;-26
2023/05/13 01:32:37;;;;;;;19.00;11.38;;;10.60;99.90;;;;;;5095250;28;20050;-26
2023/05/13 01:35:04;;;;;;;26.00;13.20;;;10.60;99.90;;;;;;5095081;28;20044;-24
2023/05/13 01:37:30;;;;;;;18.55;11.73;;;10.60;99.90;;;;;;5094623;28;20071;-26
2023/05/13 01:39:56;;;;;;;16.42;10.60;;;10.60;99.90;;;;;;5095126;28;20044;-26
2023/05/13 01:42:23;;;;;;;15.38;10.68;;;10.60;99.90;;;;;;5093910;28;20058;-26
2023/05/13 01:44:50;;;;;;;18.23;11.30;;;10.60;99.90;;;;;;5095057;28;20123;-25
2023/05/13 01:47:16;;;;;;;14.82;10.88;;;10.60;99.90;;;;;;5095243;28;20044;-25
2023/05/13 01:49:42;;;;;;;19.55;11.50;;;10.60;99.90;;;;;;5095754;28;20497;-26
2023/05/13 01:52:08;;;;;;;16.33;10.10;;;10.60;99.90;;;;;;5094063;28;20489;-26
2023/05/13 01:54:33;;;;;;;14.77;10.10;;;10.60;99.90;;;;;;5093566;28;20052;-26
2023/05/13 01:56:59;;;;;;;13.77;10.48;;;10.50;99.90;;;;;;5094818;28;20055;-26
2023/05/13 01:59:25;;;;;;;12.85;9.48;;;10.50;99.90;;;;;;5093553;28;20054;-25
2023/05/13 02:01:50;;;;;;;14.23;10.07;;;10.60;99.90;;;;;;5095524;28;20048;-25
2023/05/13 02:04:16;;;;;;;15.10;9.77;;;10.60;99.90;;;;;;5095146;28;20040;-25
2023/05/13 02:06:42;;;;;;;14.60;9.02;;;10.50;99.90;;;;;;5094614;28;20079;-25
2023/05/13 02:09:08;;;;;;;18.42;10.07;;;10.60;99.90;;;;;;5094558;28;20052;-25
2023/05/13 02:11:34;;;;;;;12.82;9.27;;;10.50;99.90;;;;;;5095097;28;20130;-25
2023/05/13 02:14:00;;;;;;;14.40;9.40;;;10.50;99.90;;;;;;5094517;28;20047;-25
2023/05/13 02:16:26;;;;;;;15.57;10.90;;;10.40;99.90;;;;;;5094420;28;20450;-25
2023/05/13 02:18:51;;;;;;;15.82;10.82;;;10.40;99.90;;;;;;5093296;28;20062;-25
2023/05/13 02:21:17;;;;;;;15.23;10.55;;;10.40;99.90;;;;;;5094064;28;20044;-24
2023/05/13 02:23:43;;;;;;;14.73;10.77;;;10.40;99.90;;;;;;5094156;28;20059;-25
2023/05/13 02:26:08;;;;;;;16.90;10.75;;;10.40;99.90;;;;;;5094276;28;20116;-25
2023/05/13 02:28:34;;;;;;;16.85;10.98;;;10.40;99.90;;;;;;5093314;28;20040;-25
2023/05/13 02:31:00;;;;;;;20.38;12.65;;;10.50;99.90;;;;;;5094455;28;20074;-26
2023/05/13 02:33:26;;;;;;;19.17;11.18;;;10.50;99.90;;;;;;5094237;28;20048;-25
2023/05/13 02:35:51;;;;;;;13.52;11.65;;;10.50;99.90;;;;;;5094206;28;20052;-26
2023/05/13 02:38:17;;;;;;;16.88;11.60;;;10.40;99.90;;;;;;5094983;28;20047;-25
2023/05/13 02:40:43;;;;;;;14.98;11.38;;;10.50;99.90;;;;;;5094061;28;20048;-25
2023/05/13 02:43:08;;;;;;;15.82;10.82;;;10.50;99.90;;;;;;5094838;28;20048;-25
2023/05/13 02:45:34;;;;;;;15.25;10.48;;;10.40;99.90;;;;;;5093594;28;20047;-25
2023/05/13 02:48:00;;;;;;;17.67;11.10;;;10.40;99.90;;;;;;5093937;28;20044;-25
2023/05/13 02:50:25;;;;;;;15.07;11.02;;;10.50;99.90;;;;;;5092725;28;20044;-26
2023/05/13 02:52:51;;;;;;;14.25;10.23;;;10.50;99.90;;;;;;5093815;28;20052;-25
2023/05/13 02:55:17;;;;;;;13.80;10.75;;;10.60;99.90;;;;;;5093873;28;20161;-25
2023/05/13 02:57:43;;;;;;;16.65;11.00;;;10.50;99.90;;;;;;5094371;28;20095;-25
2023/05/13 03:00:10;;;;;;;21.02;11.13;;;10.50;99.90;;;;;;5093845;28;20136;-25
2023/05/13 03:02:36;;;;;;;13.50;9.90;;;10.50;99.90;;;;;;5093712;28;20048;-26
2023/05/13 03:05:02;;;;;;;13.30;10.52;;;10.50;99.90;;;;;;5094234;28;20382;-26
2023/05/13 03:07:28;;;;;;;14.32;9.35;;;10.50;99.90;;;;;;5093822;28;20135;-26
2023/05/13 03:09:54;;;;;;;15.02;10.02;;;10.50;99.90;;;;;;5076313;28;20040;-25
2023/05/13 03:12:20;;;;;;;15.88;10.35;;;10.50;99.90;;;;;;5093734;28;20100;-25
2023/05/13 03:14:45;;;;;;;16.67;10.48;;;10.60;99.90;;;;;;5094454;28;20094;-25
2023/05/13 03:17:11;;;;;;;14.15;9.73;;;10.50;99.90;;;;;;5093640;28;20044;-26
2023/05/13 03:19:38;;;;;;;12.88;10.50;;;10.60;99.90;;;;;;5093644;28;20117;-26
2023/05/13 03:22:04;;;;;;;16.85;9.85;;;10.50;99.90;;;;;;5093648;28;20522;-25
2023/05/13 03:24:31;;;;;;;17.90;10.65;;;10.50;99.90;;;;;;5093513;28;20056;-26
2023/05/13 03:26:57;;;;;;;20.85;10.65;;;10.40;99.90;;;;;;5093642;28;20083;-25
2023/05/13 03:29:22;;;;;;;14.73;9.35;;;10.40;99.90;;;;;;5094108;28;20055;-26
2023/05/13 03:31:49;;;;;;;18.90;10.40;;;10.40;99.90;;;;;;5093836;28;20043;-25
2023/05/13 03:34:15;;;;;;;14.95;11.10;;;10.40;99.90;;;;;;5093500;28;20119;-25
2023/05/13 03:36:41;;;;;;;18.65;10.30;;;10.40;99.90;;;;;;5094348;28;20147;-25
2023/05/13 03:39:07;;;;;;;14.70;10.63;;;10.40;99.90;;;;;;5075659;28;20048;-26
2023/05/13 03:41:33;;;;;;;15.88;9.98;;;10.40;99.90;;;;;;5093977;28;20500;-25
2023/05/13 03:43:59;;;;;;;14.60;10.23;;;10.40;99.90;;;;;;5093460;28;20056;-25
2023/05/13 03:46:28;;;;;;;19.52;10.35;;;10.30;99.90;;;;;;5093361;28;20390;-25
2023/05/13 03:48:54;;;;;;;19.50;11.32;;;10.30;99.90;;;;;;5093924;28;20405;-26
2023/05/13 03:51:21;;;;;;;16.60;11.07;;;10.30;99.90;;;;;;5093233;28;20178;-24
2023/05/13 03:53:46;;;;;;;16.13;10.90;;;10.30;99.90;;;;;;5094141;28;20047;-25
2023/05/13 03:56:13;;;;;;;20.00;11.00;;;10.30;99.90;;;;;;5092657;28;20044;-25
2023/05/13 03:58:39;;;;;;;15.30;10.93;;;10.30;99.90;;;;;;5093090;28;20485;-25
2023/05/13 04:01:06;;;;;;;17.60;11.07;;;10.30;99.90;;;;;;5094063;28;20367;-25
2023/05/13 04:03:33;;;;;;;20.58;10.57;;;10.30;99.90;;;;;;5091982;28;20051;-25
2023/05/13 04:05:59;;;;;;;18.98;11.27;;;10.40;99.90;;;;;;5093163;28;20043;-25
2023/05/13 04:08:24;;;;;;;17.50;10.23;;;10.40;99.90;;;;;;5093184;28;20051;-24
2023/05/13 04:10:50;;;;;;;17.60;9.95;;;10.40;99.90;;;;;;5094139;28;20140;-24
2023/05/13 04:13:16;;;;;;;16.70;9.95;;;10.50;99.90;;;;;;5093692;28;20048;-26
2023/05/13 04:15:42;;;;;;;16.17;9.90;;;10.50;99.90;;;;;;5094916;28;20044;-25
2023/05/13 04:18:07;;;;;;;13.32;9.70;;;10.60;99.90;;;;;;5096381;28;20550;-25
2023/05/13 04:20:33;;;;;;;24.27;11.13;;;10.60;99.90;;;;;;5096688;28;20505;-25
2023/05/13 04:23:00;;;;;;;16.95;10.35;;;10.60;99.90;;;;;;5097195;28;20043;-24
2023/05/13 04:25:26;;;;;;;17.15;9.15;;;10.70;99.90;;;;;;5096589;28;20082;-24
2023/05/13 04:27:51;;;;;;;16.85;10.10;;;10.70;99.90;;;;;;5096577;28;20044;-25
2023/05/13 04:30:17;;;;;;;16.40;9.50;;;10.70;99.90;;;;;;5096793;28;20051;-25
2023/05/13 04:32:43;;;;;;;17.88;9.45;;;10.80;99.90;;;;;;5097285;28;20056;-25
2023/05/13 04:35:09;;;;;;;16.15;10.13;;;10.80;99.90;;;;;;5095252;28;20763;-24
2023/05/13 04:37:34;;;;;;;12.55;8.57;;;10.80;99.90;;;;;;5095726;28;20055;-25
2023/05/13 04:40:00;;;;;;;15.57;9.25;;;10.80;99.90;;;;;;5096356;28;20039;-25
2023/05/13 04:42:26;;;;;;;16.63;9.68;;;10.80;99.90;;;;;;5096821;28;20047;-25
2023/05/13 04:44:52;;;;;;;17.77;9.93;;;10.80;99.90;;;;;;5096145;28;20386;-25
2023/05/13 04:47:18;;;;;;;16.25;9.02;;;10.90;99.90;;;;;;5096161;28;20123;-25
2023/05/13 04:49:43;;;;;;;18.67;9.77;;;10.90;99.90;;;;;;5096646;28;20062;-25
2023/05/13 04:52:11;;;;;;;14.27;9.60;;;11.00;99.90;;;;;;5096154;28;20048;-25
2023/05/13 04:54:38;;;;;;;13.98;9.27;;;11.00;99.90;;;;;;5095968;28;20048;-27
2023/05/13 04:57:04;;;;;;;17.60;9.77;;;11.00;99.90;;;;;;5095638;28;20086;-25
2023/05/13 04:59:30;;;;;;;20.88;9.48;;;11.10;99.90;;;;;;5095942;28;20048;-26
2023/05/13 05:01:56;;;;;;;14.75;9.48;;;11.10;99.90;;;;;;5095863;28;20040;-26
2023/05/13 05:04:23;;;;;;;17.45;9.77;;;11.20;99.90;;;;;;5094682;28;20051;-25
2023/05/13 05:06:48;;;;;;;16.17;8.68;;;11.30;99.90;;;;;;5095106;28;20044;-26
2023/05/13 05:09:14;;;;;;;15.60;9.70;;;11.30;99.90;;;;;;5094496;28;20040;-25
2023/05/13 05:11:40;;;;;;;16.00;9.30;;;11.40;99.90;;;;;;5094417;28;20093;-26
2023/05/13 05:14:05;;;;;;;15.30;9.18;;;11.40;99.90;;;;;;5095697;28;20088;-24
2023/05/13 05:16:31;;;;;;;16.05;9.63;;;11.50;99.90;;;;;;5096207;28;20107;-24
2023/05/13 05:18:58;;;;;;;13.27;8.20;;;11.60;99.90;;;;;;5095635;28;20044;-26
2023/05/13 05:21:23;;;;;;;15.25;9.57;;;11.60;99.90;;;;;;5095496;28;20063;-26
2023/05/13 05:23:49;;;;;;;15.10;8.27;;;11.70;99.90;;;;;;5094226;28;20040;-25
2023/05/13 05:26:15;;;;;;;15.00;8.65;;;11.80;99.90;;;;;;5094842;28;20469;-26
2023/05/13 05:28:42;;;;;;;12.93;8.52;;;11.90;99.90;;;;;;5095872;28;20052;-26
2023/05/13 05:31:08;;;;;;;13.90;8.65;;;12.00;99.90;;;;;;5095349;28;20083;-25
2023/05/13 05:33:35;;;;;;;12.18;8.15;;;12.40;99.90;;;;;;5095278;28;20123;-25
2023/05/13 05:36:01;;;;;;;10.25;7.78;;;13.30;99.90;;;;;;5094013;28;20105;-26
2023/05/13 05:38:26;;;;;;;14.63;8.43;;;14.20;99.90;;;;;;5095716;28;20420;-26
2023/05/13 05:40:52;;;;;;;13.95;7.28;;;14.70;1.00;;;;;;5095151;28;20119;-26
2023/05/13 05:43:18;;;;;;;14.20;8.20;;;15.20;99.90;;;;;;5095089;28;20097;-26
2023/05/13 05:45:45;;;;;;;11.82;7.85;;;15.50;99.90;;;;;;5095261;28;20086;-26
2023/05/13 05:48:10;;;;;;;10.02;6.70;;;15.90;1.00;;;;;;5095056;28;20143;-26
2023/05/13 05:50:36;;;;;;;12.77;7.40;;;16.20;1.00;;;;;;5094966;28;20123;-26
2023/05/13 05:53:02;;;;;;;11.10;7.13;;;16.30;99.90;;;;;;5094852;28;20086;-26
2023/05/13 05:55:30;;;;;;;10.75;6.88;;;16.40;99.90;;;;;;5094845;28;20127;-26
2023/05/13 05:57:56;;;;;;;12.60;6.72;;;16.60;17.70;;;;;;5094832;28;20452;-26
2023/05/13 06:00:22;;;;;;;11.13;7.22;;;16.70;1.00;;;;;;5094490;28;20554;-26
2023/05/13 06:02:48;;;;;;;11.40;7.13;;;;;;;;;;5095538;28;20398;-25
2023/05/13 06:05:15;;;;;;;13.57;7.00;;;17.10;99.90;;;;;;5094581;28;20080;-24
2023/05/13 06:07:41;;;;;;;13.50;7.63;;;17.30;99.90;;;;;;5093716;28;20048;-25
2023/05/13 06:10:07;;;;;;;15.40;6.30;;;17.80;99.90;;;;;;5094022;28;20052;-25
2023/05/13 06:12:33;;;;;;;12.95;6.85;;;18.00;1.00;;;;;;5094418;28;20130;-24
2023/05/13 06:15:00;;;;;;;10.60;6.32;;;18.20;1.00;;;;;;5094194;28;20185;-24
2023/05/13 06:17:26;;;;;;;11.23;6.97;;;18.50;99.90;;;;;;5094429;28;20048;-25
2023/05/13 06:19:51;;;;;;;14.77;7.22;;;18.50;99.90;;;;;;5094409;28;20066;-25
2023/05/13 06:22:17;;;;;;;14.48;7.10;;;18.50;99.90;;;;;;5094344;28;20079;-25
2023/05/13 06:24:43;;;;;;;19.08;6.43;;;18.60;99.90;;;;;;5094774;28;20051;-25
2023/05/13 06:27:12;;;;;;;10.93;6.75;;;18.60;1.00;;;;;;5092812;28;20600;-25
2023/05/13 06:29:38;;;;;;;11.63;6.05;;;18.90;1.00;;;;;;5094238;28;20054;-26
2023/05/13 06:32:04;;;;;;;10.45;5.90;;;19.20;1.00;;;;;;5094243;28;20044;-26
2023/05/13 06:34:30;;;;;;;12.05;6.22;;;19.10;99.90;;;;;;5094212;28;20040;-26
2023/05/13 06:36:56;;;;;;;12.88;6.15;;;18.90;99.90;;;;;;5092469;28;20454;-26
2023/05/13 06:39:22;;;;;;;16.13;6.63;;;18.70;99.90;;;;;;5076283;28;20120;-26
2023/05/13 06:41:48;;;;;;;17.55;6.25;;;18.60;99.90;;;;;;5094105;28;20478;-26
2023/05/13 06:44:14;;;;;;;9.63;6.22;;;18.80;99.90;;;;;;5093406;28;20046;-26
2023/05/13 06:46:39;;;;;;;13.20;6.03;;;18.90;99.90;;;;;;5094772;28;20101;-26
2023/05/13 06:49:05;;;;;;;11.85;6.15;;;19.00;99.90;;;;;;5092988;28;20044;-26
2023/05/13 06:51:32;;;;;;;10.00;5.43;;;19.30;99.90;;;;;;5092923;28;20040;-24
2023/05/13 06:53:58;;;;;;;11.18;5.88;;;19.70;98.20;;;;;;5093939;28;20077;-26
2023/05/13 06:56:24;;;;;;;8.63;5.40;;;20.10;1.00;;;;;;5093247;28;20474;-26
2023/05/13 06:58:51;;;;;;;10.20;5.60;;;20.00;99.90;;;;;;5093497;28;20079;-27
2023/05/13 07:01:17;;;;;;;10.52;5.70;;;20.10;99.90;;;;;;5093830;28;20079;-26
2023/05/13 07:03:43;;;;;;;8.75;5.38;;;20.00;99.90;;;;;;5094306;28;20114;-27
2023/05/13 07:06:09;;;;;;;8.68;5.20;;;19.80;99.90;;;;;;5094285;28;20040;-28
2023/05/13 07:08:35;;;;;;;10.13;5.03;;;19.70;99.90;;;;;;5093763;28;20489;-26
2023/05/13 07:11:01;;;;;;;8.88;5.50;;;19.70;99.90;;;;;;5093761;28;20048;-26
2023/05/13 07:13:28;;;;;;;9.48;5.10;;;19.80;97.20;;;;;;5092497;28;20051;-26
2023/05/13 07:15:53;;;;;;;6.85;4.70;;;19.70;96.00;;;;;;5093695;28;20052;-26
2023/05/13 07:18:19;;;;;;;9.20;4.85;;;19.90;99.90;;;;;;5075639;28;20048;-26
2023/05/13 07:20:45;;;;;;;9.20;4.82;;;20.40;99.90;;;;;;5093637;28;20148;-27
2023/05/13 07:23:11;;;;;;;8.48;4.65;;;20.40;1.00;;;;;;5093429;28;20355;-26
2023/05/13 07:25:37;;;;;;;11.48;4.88;;;20.50;1.00;;;;;;5094329;28;20036;-27
2023/05/13 07:28:03;;;;;;;7.72;4.53;;;20.80;1.00;;;;;;5093501;28;20462;-26
2023/05/13 07:30:29;;;;;;;8.02;4.65;;;21.00;1.00;;;;;;5092331;28;20398;-26
2023/05/13 07:32:54;;;;;;;6.95;4.60;;;21.20;1.00;;;;;;5093535;28;20127;-26
2023/05/13 07:35:20;;;;;;;9.35;5.22;;;21.20;99.90;;;;;;5093837;28;20520;-26
2023/05/13 07:37:46;;;;;;;9.65;5.10;;;21.10;99.90;;;;;;5094096;28;20535;-26
2023/05/13 07:40:12;;;;;;;9.70;6.03;;;21.00;99.90;;;;;;5076526;28;20098;-26
2023/05/13 07:42:39;;;;;;;6.28;4.97;;;20.70;99.90;;;;;;5093412;28;20123;-26
2023/05/13 07:45:06;;;;;;;11.73;4.60;;;20.70;99.90;;;;;;5093372;28;20047;-26
2023/05/13 07:47:32;;;;;;;10.13;4.63;;;20.80;99.90;;;;;;5092993;28;20055;-26
2023/05/13 07:49:58;;;;;;;6.95;4.70;;;20.80;99.90;;;;;;5094088;28;20402;-27
2023/05/13 07:52:24;;;;;;;15.98;5.55;;;21.00;99.90;;;;;;5097711;28;20447;-27
2023/05/13 07:54:50;;;;;;;7.38;4.20;;;21.10;99.90;;;;;;5096566;28;20036;-27
2023/05/13 07:57:16;;;;;;;10.95;4.28;;;21.30;99.90;;;;;;5097712;28;20071;-26
2023/05/13 07:59:42;;;;;;;10.02;4.30;;;21.30;99.90;;;;;;5095920;28;20127;-26
2023/05/13 08:02:08;;;;;;;11.02;4.45;;;21.50;99.90;;;;;;5097667;28;20058;-26
2023/05/13 08:04:34;;;;;;;7.65;4.15;;;21.40;99.90;;;;;;5096973;28;20058;-26
2023/05/13 08:07:00;;;;;;;8.63;4.45;;;21.50;99.90;;;;;;5096889;28;20044;-26
2023/05/13 08:09:26;;;;;;;8.60;3.90;;;21.60;99.90;;;;;;5096976;28;20048;-26
2023/05/13 08:11:53;;;;;;;6.60;4.00;;;21.80;99.90;;;;;;5096896;28;20087;-27
2023/05/13 08:14:19;;;;;;;10.95;4.13;;;22.10;21.60;;;;;;5096779;28;20086;-26
2023/05/13 08:16:45;;;;;;;6.65;3.88;;;22.10;1.00;;;;;;5097309;28;20043;-26
2023/05/13 08:19:13;;;;;;;4.65;3.42;;;22.10;1.00;;;;;;5096665;28;20039;-26
2023/05/13 08:21:38;;;;;;;5.68;4.20;;;22.10;1.00;;;;;;5096593;28;20157;-26
2023/05/13 08:24:05;;;;;;;7.50;3.60;;;22.20;1.00;;;;;;5096623;28;20072;-27
2023/05/13 08:26:31;;;;;;;6.45;3.35;;;22.30;1.00;;;;;;5095290;28;20044;-26
2023/05/13 08:28:57;;;;;;;7.22;3.85;;;22.20;1.00;;;;;;5096511;28;20044;-27
2023/05/13 08:31:24;;;;;;;8.90;4.32;;;22.50;1.00;;;;;;5096440;28;20123;-26
2023/05/13 08:33:53;;;;;;;7.57;3.88;;;22.50;1.00;;;;;;5096447;28;20048;-26
2023/05/13 08:36:20;;;;;;;5.93;3.10;;;22.50;99.90;;;;;;5068206;28;20059;-26
2023/05/13 08:38:50;;;;;;;7.03;3.85;;;22.30;99.90;;;;;;5096074;28;20555;-27
2023/05/13 08:41:19;;;;;;;8.35;3.35;;;22.40;99.90;;;;;;5094210;28;20131;-24
2023/05/13 08:43:46;;;;;;;9.23;3.95;;;22.50;99.90;;;;;;5084238;28;20466;-26
2023/05/13 08:46:15;;;;;;;7.30;3.67;;;22.70;99.90;;;;;;5095269;28;20071;-27
2023/05/13 08:48:41;;;;;;;7.82;3.70;;;22.60;99.90;;;;;;5084062;28;20084;-27
2023/05/13 08:51:08;;;;;;;5.43;3.08;;;22.30;99.90;;;;;;5075882;28;20482;-26
2023/05/13 08:53:35;;;;;;;8.38;3.20;;;22.80;99.90;;;;;;5075762;28;20048;-27
2023/05/13 08:56:01;;;;;;;8.73;3.45;;;23.10;1.00;;;;;;5072709;28;20047;-27
2023/05/13 08:58:27;;;;;;;5.95;3.38;;;23.10;99.90;;;;;;5095998;28;20048;-27
2023/05/13 09:00:53;;;;;;;7.85;3.05;;;22.90;99.90;;;;;;5085098;28;20055;-27
2023/05/13 09:03:20;;;;;;;7.07;3.75;;;22.80;99.90;;;;;;5078982;28;20087;-27
2023/05/13 09:05:46;;;;;;;6.68;5.03;;;22.80;99.90;;;;;;5075597;28;20140;-27
2023/05/13 09:08:12;;;;;;;7.00;4.18;;;23.20;99.90;;;;;;5076577;28;20041;-26
2023/05/13 09:10:38;;;;;;;5.15;3.28;;;23.10;99.90;;;;;;5095765;28;20048;-27
2023/05/13 09:13:05;;;;;;;9.35;3.63;;;23.10;99.90;;;;;;5087658;28;20048;-27
2023/05/13 09:15:31;;;;;;;6.38;3.30;;;23.30;99.90;;;;;;5076890;28;20048;-28
2023/05/13 09:18:06;;;;;;;6.70;3.38;;;23.50;99.90;;;;;;5075639;28;20101;-27
2023/05/13 09:20:33;;;;;;;8.50;3.40;;;23.30;99.90;;;;;;5075650;28;20048;-28
2023/05/13 09:23:05;;;;;;;4.90;3.38;;;23.20;99.90;;;;;;5075270;28;20045;-28
2023/05/13 09:25:31;;;;;;;7.28;3.63;;;23.60;99.90;;;;;;5075378;28;20045;-28
2023/05/13 09:27:59;;;;;;;7.38;3.60;;;23.80;99.90;;;;;;5074681;28;20049;-27
2023/05/13 09:30:27;;;;;;;9.35;3.50;;;24.00;99.90;;;;;;5075714;28;20055;-28
2023/05/13 09:33:13;;;;;;;9.10;3.60;;;24.40;99.90;;;;;;5075167;28;20153;-28
2023/05/13 09:35:42;;;;;;;7.00;3.40;;;24.30;99.90;;;;;;5075132;28;20135;-27
2023/05/13 09:38:15;;;;;;;8.13;3.40;;;24.30;99.90;;;;;;5075906;28;20083;-28
2023/05/13 09:40:48;;;;;;;8.02;3.65;;;24.40;99.90;;;;;;5075074;28;20048;-28
2023/05/13 09:43:14;;;;;;;9.23;4.00;;;24.30;99.90;;;;;;5075476;28;20048;-28
2023/05/13 09:45:40;;;;;;;7.60;3.42;;;24.30;99.90;;;;;;5074734;28;20040;-27
2023/05/13 09:48:07;;;;;;;6.90;3.55;;;24.20;99.90;;;;;;5073811;28;20040;-28
2023/05/13 09:50:33;;;;;;;7.57;3.35;;;23.90;99.90;;;;;;5075272;28;20062;-28
2023/05/13 09:53:10;;;;;;;5.72;3.38;;;24.40;99.90;;;;;;5074591;28;20131;-28
2023/05/13 09:55:36;;;;;;;7.05;3.97;;;24.70;99.90;;;;;;5075502;28;20041;-28
2023/05/13 09:58:08;;;;;;;8.55;3.55;;;24.70;99.90;;;;;;5074426;28;20478;-28
2023/05/13 10:00:35;;;;;;;13.15;3.75;;;24.70;99.90;;;;;;5074169;28;20083;-28
2023/05/13 10:03:01;;;;;;;10.00;3.70;;;24.70;99.90;;;;;;5074473;28;20044;-28
2023/05/13 10:05:27;;;;;;;8.30;3.83;;;24.80;99.90;;;;;;5074360;28;20040;-28
2023/05/13 10:07:53;;;;;;;6.43;3.53;;;25.10;99.90;;;;;;5074381;28;20090;-28
2023/05/13 10:10:20;;;;;;;8.13;3.58;;;25.20;99.90;;;;;;5074344;28;20060;-28
2023/05/13 10:12:48;;;;;;;9.80;4.20;;;25.20;99.90;;;;;;5073665;28;20478;-28
2023/05/13 10:15:14;;;;;;;7.15;3.47;;;25.10;99.90;;;;;;5074276;28;20044;-28
2023/05/13 10:17:41;;;;;;;8.65;3.70;;;25.00;99.90;;;;;;5073754;28;20135;-26
2023/05/13 10:20:07;;;;;;;7.05;4.40;;;24.60;99.90;;;;;;5074745;28;20500;-28
2023/05/13 10:22:36;;;;;;;10.10;4.05;;;24.60;99.90;;;;;;5074113;28;20044;-28
2023/05/13 10:25:03;;;;;;;8.13;4.50;;;24.50;99.90;;;;;;5079098;28;20040;-29
2023/05/13 10:27:31;;;;;;;6.60;4.18;;;24.70;99.90;;;;;;5079604;28;20048;-29
2023/05/13 10:29:58;;;;;;;8.75;4.28;;;25.00;99.90;;;;;;5075242;28;20123;-28
2023/05/13 10:32:29;;;;;;;7.93;4.53;;;25.10;99.90;;;;;;5094223;28;20120;-28
2023/05/13 10:35:16;;;;;;;8.05;4.63;;;25.20;99.90;;;;;;5095064;28;20500;-28
2023/05/13 10:38:05;;;;;;;9.15;4.72;;;25.00;99.90;;;;;;5093176;28;20085;-28
2023/05/13 10:41:10;;;;;;;10.93;4.40;;;25.10;99.90;;;;;;5073348;28;20505;-28
2023/05/13 10:43:36;;;;;;;6.82;4.15;;;25.50;99.90;;;;;;5084829;28;20079;-28
2023/05/13 10:46:06;;;;;;;7.05;4.03;;;25.50;99.90;;;;;;5073725;28;20079;-28
2023/05/13 10:48:38;;;;;;;9.85;4.43;;;25.60;99.90;;;;;;5086416;28;20098;-28
2023/05/13 10:51:07;;;;;;;;;;;25.80;99.90;;;;;;5092539;28;20091;-29
2023/05/13 10:53:49;;;;;;;7.35;4.30;;;25.50;99.90;;;;;;5074222;28;19963;-28
2023/05/13 10:56:18;;;;;;;7.03;3.92;;;25.60;99.90;;;;;;5093713;28;20044;-28
2023/05/13 10:59:00;;;;;;;9.30;4.00;;;25.50;99.90;;;;;;5094648;28;20109;-28
2023/05/13 11:01:42;;;;;;;11.75;4.15;;;25.10;99.90;;;;;;5094227;28;20113;-29
2023/05/13 11:04:13;;;;;;;12.23;4.80;;;25.10;99.90;;;;;;5093953;28;20044;-26
2023/05/13 11:06:40;;;;;;;6.30;4.00;;;25.30;99.90;;;;;;5074962;28;20390;-29
2023/05/13 11:09:27;;;;;;;7.32;4.15;;;25.50;99.90;;;;;;5073577;28;20125;-29
2023/05/13 11:11:57;;;;;;;8.13;4.47;;;25.70;99.90;;;;;;5073187;28;20575;-29
2023/05/13 11:14:29;;;;;;;6.80;4.15;;;25.40;99.90;;;;;;5074360;28;20044;-28
2023/05/13 11:17:01;;;;;;;8.00;4.07;;;25.60;99.90;;;;;;5073089;28;20041;-29
2023/05/13 11:19:29;;;;;;;5.93;4.23;;;25.70;99.90;;;;;;5074069;28;20150;-28
2023/05/13 11:22:12;;;;;;;5.78;4.03;;;25.60;99.90;;;;;;5073700;28;20682;-28
2023/05/13 11:24:39;;;;;;;6.32;4.20;;;25.80;99.90;;;;;;5075056;28;20437;-28
2023/05/13 11:27:15;;;;;;;7.72;4.45;;;25.90;99.90;;;;;;5078873;28;20057;-28
2023/05/13 11:29:55;;;;;;;10.45;4.10;;;25.90;99.90;;;;;;5077458;28;20080;-29
2023/05/13 11:32:54;;;;;;;7.45;4.38;;;26.30;99.90;;;;;;5076718;28;20060;-29
2023/05/13 11:35:28;;;;;;;8.40;4.00;;;26.00;99.90;;;;;;5043828;28;20048;-28
2023/05/13 11:37:55;;;;;;;8.70;4.38;;;25.80;99.90;;;;;;5083327;28;20057;-29
2023/05/13 11:40:27;;;;;;;7.30;4.10;;;26.40;99.90;;;;;;5077736;28;20048;-29
2023/05/13 11:42:53;;;;;;;7.55;4.32;;;26.60;99.90;;;;;;5077168;28;20049;-28
2023/05/13 11:45:20;;;;;;;9.52;4.38;;;26.30;99.90;;;;;;5077121;28;20033;-29
2023/05/13 11:47:46;;;;;;;10.23;4.50;;;26.30;99.90;;;;;;5077403;28;20040;-29
2023/05/13 11:50:23;;;;;;;10.73;4.15;;;26.60;99.90;;;;;;5076111;28;20048;-29
2023/05/13 11:52:54;;;;;;;10.20;5.88;;;26.80;99.90;;;;;;5085281;28;20071;-28
2023/05/13 11:55:30;;;;;;;17.42;4.97;;;26.40;99.90;;;;;;5097259;28;20050;-28
2023/05/13 11:57:57;;;;;;;5.35;4.07;;;26.30;99.90;;;;;;5088983;28;20040;-29
2023/05/13 12:00:31;;;;;;;13.27;5.47;;;26.40;99.90;;;;;;5077142;28;20508;-29
2023/05/13 12:02:57;;;;;;;11.10;5.28;;;26.10;99.90;;;;;;5077414;28;20049;-28
2023/05/13 12:05:24;;;;;;;7.28;4.78;;;25.70;99.90;;;;;;5076720;28;20398;-29
2023/05/13 12:07:50;;;;;;;7.18;4.53;;;26.00;99.90;;;;;;5074827;28;20406;-29
2023/05/13 12:10:17;;;;;;;11.73;5.07;;;25.90;99.90;;;;;;5077033;28;20044;-29
2023/05/13 12:12:44;;;;;;;8.18;4.18;;;26.30;99.90;;;;;;5076638;28;20047;-28
2023/05/13 12:15:13;;;;;;;8.25;5.15;;;26.30;99.90;;;;;;5077128;28;20056;-28
2023/05/13 12:17:39;;;;;;;11.25;5.30;;;26.10;99.90;;;;;;5076552;28;20049;-28
2023/05/13 12:20:10;;;;;;;8.27;5.05;;;25.80;99.90;;;;;;5076405;28;20472;-29
2023/05/13 12:22:42;;;;;;;7.93;4.82;;;25.90;99.90;;;;;;5076745;28;20048;-29
2023/05/13 12:25:39;;;;;;;6.95;4.30;;;26.00;99.90;;;;;;5060143;28;20375;-29
2023/05/13 12:28:20;;;;;;;7.35;4.90;;;26.00;99.90;;;;;;5076356;28;20501;-28
2023/05/13 12:31:00;;;;;;;14.87;5.77;;;25.70;99.90;;;;;;5077316;28;20123;-29
2023/05/13 12:33:32;;;;;;;7.72;4.55;;;25.90;99.90;;;;;;5075618;28;20123;-28
2023/05/13 12:36:34;;;;;;;11.50;4.80;;;26.20;99.90;;;;;;5075165;28;20058;-29
2023/05/13 12:39:10;;;;;;;6.93;4.82;;;26.10;99.90;;;;;;5076240;28;20491;-28
2023/05/13 12:41:36;;;;;;;12.52;5.00;;;25.90;99.90;;;;;;5076228;28;20048;-30
2023/05/13 12:44:12;;;;;;;9.25;3.78;;;25.80;99.90;;;;;;5075606;28;20410;-28